createdAt,value
2022-12-16T00:02:13.170Z,-0.79
2022-12-16T00:07:16.453Z,-0.76
2022-12-16T00:12:19.428Z,-0.84
2022-12-16T00:17:23.909Z,-0.90
2022-12-16T00:22:26.952Z,-0.98
2022-12-16T00:27:29.965Z,-1.02
2022-12-16T00:32:34.451Z,-1.07
2022-12-16T00:37:37.584Z,-1.17
2022-12-16T00:42:40.600Z,-1.02
2022-12-16T00:47:45.044Z,-0.92
2022-12-16T00:52:48.689Z,-0.74
2022-12-16T00:57:51.735Z,-0.67
2022-12-16T01:02:56.506Z,-0.55
2022-12-16T01:07:59.689Z,-0.45
2022-12-16T01:13:02.966Z,-0.51
2022-12-16T01:18:07.648Z,-0.54
2022-12-16T01:23:10.925Z,-0.45
2022-12-16T01:28:14.251Z,-0.43
2022-12-16T01:33:18.709Z,-0.44
2022-12-16T01:38:21.830Z,-0.54
2022-12-16T01:43:28.204Z,-0.68
2022-12-16T01:48:43.189Z,-0.81
2022-12-16T01:53:47.492Z,-0.84
2022-12-16T01:58:52.436Z,-0.62
2022-12-16T02:04:02.316Z,-0.51
2022-12-16T02:09:08.906Z,-0.54
2022-12-16T02:14:32.677Z,-0.70
2022-12-16T02:20:10.129Z,-0.81
2022-12-16T02:25:48.183Z,-0.89
2022-12-16T02:31:14.212Z,-1.05
2022-12-16T02:36:26.665Z,-1.02
2022-12-16T02:41:38.897Z,-0.95
2022-12-16T02:46:45.659Z,-0.82
2022-12-16T02:51:50.508Z,-0.78
2022-12-16T02:57:07.427Z,-0.68
2022-12-16T03:02:16.017Z,-0.62
2022-12-16T03:07:22.225Z,-0.57
2022-12-16T03:12:25.942Z,-0.49
2022-12-16T03:17:30.573Z,-0.47
2022-12-16T03:22:37.990Z,-0.47
2022-12-16T03:27:46.168Z,-0.49
2022-12-16T03:32:59.004Z,-0.36
2022-12-16T03:38:06.828Z,-0.38
2022-12-16T03:43:14.225Z,-0.25
2022-12-16T03:48:20.606Z,-0.26
2022-12-16T03:53:26.470Z,-0.28
2022-12-16T03:58:29.613Z,-0.27
2022-12-16T04:03:34.295Z,-0.29
2022-12-16T04:08:37.718Z,-0.28
2022-12-16T04:13:58.243Z,-0.30
2022-12-16T04:19:20.583Z,-0.40
2022-12-16T04:24:31.287Z,-0.32
2022-12-16T04:29:54.888Z,-0.46
2022-12-16T04:35:13.071Z,-0.49
2022-12-16T04:40:33.655Z,-0.46
2022-12-16T04:45:57.076Z,-0.50
2022-12-16T04:51:19.137Z,-0.60
2022-12-16T04:56:39.429Z,-0.73
2022-12-16T05:02:02.184Z,-0.86
2022-12-16T05:07:24.595Z,-1.02
2022-12-16T05:12:45.130Z,-1.15
2022-12-16T05:18:05.678Z,-1.34
2022-12-16T05:23:27.239Z,-1.35
2022-12-16T05:28:47.791Z,-1.41
2022-12-16T05:34:08.356Z,-1.42
2022-12-16T05:39:30.483Z,-1.45
2022-12-16T05:44:50.170Z,-1.57
2022-12-16T05:50:10.459Z,-1.65
2022-12-16T05:55:34.246Z,-1.68
2022-12-16T06:01:00.736Z,-1.83
2022-12-16T06:06:21.429Z,-1.79
2022-12-16T06:11:43.271Z,-1.81
2022-12-16T06:17:03.571Z,-1.86
2022-12-16T06:22:24.070Z,-1.92
2022-12-16T06:27:45.526Z,-1.96
2022-12-16T06:33:14.804Z,-2.02
2022-12-16T06:38:35.451Z,-2.05
2022-12-16T06:43:57.369Z,-2.18
2022-12-16T06:49:23.161Z,-2.23
2022-12-16T06:54:43.483Z,-2.25
2022-12-16T07:00:05.142Z,-2.36
2022-12-16T07:05:45.318Z,-2.38
2022-12-16T07:11:15.994Z,-2.41
2022-12-16T07:16:38.100Z,-2.46
2022-12-16T07:21:58.381Z,-2.48
2022-12-16T07:27:18.953Z,-2.62
2022-12-16T07:32:46.464Z,-2.56
2022-12-16T07:38:07.185Z,-2.66
2022-12-16T07:43:27.781Z,-2.67
2022-12-16T07:48:50.042Z,-2.67
2022-12-16T07:54:11.271Z,-2.66
2022-12-16T07:59:31.945Z,-2.72
2022-12-16T08:05:01.358Z,-2.73
2022-12-16T08:10:22.498Z,-2.80
2022-12-16T08:15:43.092Z,-2.74
2022-12-16T08:21:04.964Z,-2.85
2022-12-16T08:26:25.638Z,-2.77
2022-12-16T08:31:57.740Z,-2.76
2022-12-16T08:37:20.303Z,-2.67
2022-12-16T08:42:40.577Z,-2.59
2022-12-16T08:48:01.189Z,-2.47
2022-12-16T08:53:23.323Z,-2.48
2022-12-16T08:58:43.894Z,-2.34
2022-12-16T09:04:04.640Z,-2.23
2022-12-16T09:09:26.737Z,-2.12
2022-12-16T09:14:47.634Z,-1.99
2022-12-16T09:20:04.571Z,-1.84
2022-12-16T09:25:27.316Z,-1.68
2022-12-16T09:31:02.952Z,-1.50
2022-12-16T09:36:24.201Z,-1.29
2022-12-16T09:42:00.486Z,-1.12
2022-12-16T09:47:27.012Z,-0.86
2022-12-16T09:52:51.818Z,-0.64
2022-12-16T09:58:13.912Z,-0.48
2022-12-16T10:03:40.618Z,-0.17
2022-12-16T10:09:08.731Z,0.01
2022-12-16T10:14:37.678Z,0.13
2022-12-16T10:20:10.399Z,0.24
2022-12-16T10:25:36.056Z,0.43
2022-12-16T10:30:57.884Z,0.53
2022-12-16T10:36:22.042Z,0.81
2022-12-16T10:41:48.300Z,1.03
2022-12-16T10:47:10.174Z,1.07
2022-12-16T10:52:32.370Z,1.17
2022-12-16T10:58:01.657Z,1.30
2022-12-16T11:03:40.750Z,1.36
2022-12-16T11:09:01.653Z,1.55
2022-12-16T11:14:34.264Z,1.67
2022-12-16T11:19:56.123Z,1.72
2022-12-16T11:25:25.364Z,1.82
2022-12-16T11:30:45.989Z,1.91
2022-12-16T11:36:11.946Z,1.96
2022-12-16T11:41:46.875Z,2.10
2022-12-16T11:47:08.423Z,2.07
2022-12-16T11:52:37.972Z,2.23
2022-12-16T11:58:06.101Z,2.35
2022-12-16T12:03:31.417Z,2.52
2022-12-16T12:09:02.801Z,2.62
2022-12-16T12:14:44.793Z,2.71
2022-12-16T12:20:16.478Z,2.77
2022-12-16T12:25:42.992Z,2.88
2022-12-16T12:31:11.389Z,2.97
2022-12-16T12:36:40.763Z,2.97
2022-12-16T12:42:27.085Z,3.09
2022-12-16T12:47:51.478Z,3.10
2022-12-16T12:53:32.903Z,3.25
2022-12-16T12:58:57.523Z,3.20
2022-12-16T13:04:25.719Z,3.37
2022-12-16T13:09:50.619Z,3.40
2022-12-16T13:15:22.607Z,3.37
2022-12-16T13:20:56.439Z,3.36
2022-12-16T13:26:33.418Z,3.46
2022-12-16T13:32:35.692Z,3.45
2022-12-16T13:37:55.984Z,3.46
2022-12-16T13:43:21.952Z,3.59
2022-12-16T13:48:50.541Z,3.50
2022-12-16T13:54:12.761Z,3.51
2022-12-16T13:59:38.218Z,3.48
2022-12-16T14:05:11.148Z,3.45
2022-12-16T14:10:46.372Z,3.49
2022-12-16T14:16:20.400Z,3.51
2022-12-16T14:21:51.343Z,3.51
2022-12-16T14:27:12.113Z,3.42
2022-12-16T14:32:45.274Z,3.32
2022-12-16T14:38:07.235Z,3.21
2022-12-16T14:43:32.416Z,3.21
2022-12-16T14:48:55.127Z,2.99
2022-12-16T14:54:35.955Z,2.92
2022-12-16T14:59:56.540Z,2.77
2022-12-16T15:05:17.873Z,2.59
2022-12-16T15:10:42.899Z,2.27
2022-12-16T15:16:07.227Z,2.19
2022-12-16T15:21:27.956Z,1.96
2022-12-16T15:26:52.749Z,1.77
2022-12-16T15:32:13.126Z,1.65
2022-12-16T15:37:43.332Z,1.55
2022-12-16T15:43:10.211Z,1.40
2022-12-16T15:48:38.495Z,1.23
2022-12-16T15:53:59.197Z,1.12
2022-12-16T15:59:43.958Z,1.05
2022-12-16T16:05:05.836Z,0.96
2022-12-16T16:10:48.735Z,0.87
2022-12-16T16:16:13.144Z,0.74
2022-12-16T16:21:33.521Z,0.70
2022-12-16T16:26:54.349Z,0.59
2022-12-16T16:32:16.220Z,0.45
2022-12-16T16:37:39.546Z,0.40
2022-12-16T16:42:59.858Z,0.27
2022-12-16T16:48:32.038Z,0.15
2022-12-16T16:53:52.662Z,0.04
2022-12-16T16:59:18.507Z,-0.08
2022-12-16T17:04:41.100Z,-0.26
2022-12-16T17:10:01.926Z,-0.36
2022-12-16T17:15:38.605Z,-0.59
2022-12-16T17:21:03.723Z,-0.71
2022-12-16T17:26:24.132Z,-0.71
2022-12-16T17:31:44.746Z,-0.89
2022-12-16T17:37:07.030Z,-0.99
2022-12-16T17:42:27.852Z,-1.04
2022-12-16T17:47:48.779Z,-1.15
2022-12-16T17:53:13.356Z,-1.23
2022-12-16T17:58:33.967Z,-1.33
2022-12-16T18:03:54.746Z,-1.45
2022-12-16T18:09:17.050Z,-1.50
2022-12-16T18:14:37.766Z,-1.62
2022-12-16T18:19:58.127Z,-1.64
2022-12-16T18:25:20.368Z,-1.75
2022-12-16T18:30:41.301Z,-1.84
2022-12-16T18:36:01.606Z,-1.88
2022-12-16T18:41:25.022Z,-1.94
2022-12-16T18:46:47.555Z,-2.02
2022-12-16T18:52:08.027Z,-2.13
2022-12-16T18:57:33.911Z,-2.25
2022-12-16T19:02:57.231Z,-2.23
2022-12-16T19:08:20.176Z,-2.30
2022-12-16T19:13:42.202Z,-2.45
2022-12-16T19:19:05.398Z,-2.53
2022-12-16T19:24:26.680Z,-2.61
2022-12-16T19:29:48.519Z,-2.70
2022-12-16T19:35:08.893Z,-2.69
2022-12-16T19:40:30.119Z,-2.77
2022-12-16T19:45:56.462Z,-2.85
2022-12-16T19:51:17.966Z,-2.91
2022-12-16T19:56:38.621Z,-2.99
2022-12-16T20:02:00.757Z,-3.03
2022-12-16T20:07:23.318Z,-3.17
2022-12-16T20:12:46.695Z,-3.26
2022-12-16T20:18:10.700Z,-3.17
2022-12-16T20:23:31.227Z,-3.22
2022-12-16T20:29:04.968Z,-3.36
2022-12-16T20:34:27.462Z,-3.33
2022-12-16T20:39:56.510Z,-3.39
2022-12-16T20:45:19.280Z,-3.44
2022-12-16T20:50:43.714Z,-3.48
2022-12-16T20:56:04.566Z,-3.53
2022-12-16T21:01:25.460Z,-3.59
2022-12-16T21:06:47.774Z,-3.65
2022-12-16T21:12:07.993Z,-3.64
2022-12-16T21:17:29.381Z,-3.37
2022-12-16T21:22:56.558Z,-3.13
2022-12-16T21:28:18.128Z,-2.92
2022-12-16T21:33:39.407Z,-2.68
2022-12-16T21:39:01.686Z,-2.41
2022-12-16T21:44:22.236Z,-2.27
2022-12-16T21:49:42.783Z,-2.10
2022-12-16T21:55:05.550Z,-1.92
2022-12-16T22:00:27.203Z,-1.79
2022-12-16T22:05:49.384Z,-1.66
2022-12-16T22:11:11.257Z,-1.52
2022-12-16T22:16:31.681Z,-1.38
2022-12-16T22:21:51.992Z,-1.31
2022-12-16T22:27:14.071Z,-1.23
2022-12-16T22:32:34.768Z,-1.09
2022-12-16T22:37:56.057Z,-1.11
2022-12-16T22:43:18.433Z,-1.05
2022-12-16T22:48:41.842Z,-1.00
2022-12-16T22:54:02.612Z,-0.91
2022-12-16T22:59:25.032Z,-0.92
2022-12-16T23:04:48.839Z,-0.82
2022-12-16T23:10:09.334Z,-0.78
2022-12-16T23:15:31.952Z,-0.87
2022-12-16T23:20:56.504Z,-0.82
2022-12-16T23:26:23.079Z,-0.79
2022-12-16T23:31:44.857Z,-0.70
2022-12-16T23:37:07.162Z,-0.82
2022-12-16T23:42:27.627Z,-0.69
2022-12-16T23:47:49.416Z,-0.67
2022-12-16T23:53:10.020Z,-0.72
2022-12-16T23:58:30.325Z,-0.67
